Aviation Digital Data Service (ADDS)

Output produced by METARs form (1508 UTC 20 March 2019)
found at http://www.aviationweather.gov/metar/data/
 
METAR text: LEBB 201500Z 06009KT 010V100 9999 FEW040 14/02 Q1032 NOSIG
Conditions at: LEBB (BILBAO/SONDICA , ES) observed 1500 UTC 20 March 2019
Temperature: 14.0°C (57°F)
Dewpoint: 2.0°C (36°F) [RH = 44%]
Pressure (altimeter): 30.47 inches Hg (1032.0 mb)
Winds: from the ENE (60 degrees) at 10 MPH (9 knots; 4.6 m/s)
Visibility: 6 or more miles (10+ km)
Ceiling: at least 12,000 feet AGL
Clouds: few clouds at 4000 feet AGL
Weather: no significant weather observed at this time

METAR text: LEBB 201430Z 05010KT 010V080 9999 FEW035 14/M00 Q1032 NOSIG
Conditions at: LEBB (BILBAO/SONDICA , ES) observed 1430 UTC 20 March 2019
Temperature: 14.0°C (57°F)
Dewpoint: 0.0°C (32°F) [RH = 38%]
Pressure (altimeter): 30.47 inches Hg (1032.0 mb)
Winds: from the NE (50 degrees) at 12 MPH (10 knots; 5.1 m/s)
Visibility: 6 or more miles (10+ km)
Ceiling: at least 12,000 feet AGL
Clouds: few clouds at 3500 feet AGL
Weather: no significant weather observed at this time

METAR text: LEBB 201400Z 05010KT 010V070 9999 FEW035 14/02 Q1032 NOSIG
Conditions at: LEBB (BILBAO/SONDICA , ES) observed 1400 UTC 20 March 2019
Temperature: 14.0°C (57°F)
Dewpoint: 2.0°C (36°F) [RH = 44%]
Pressure (altimeter): 30.47 inches Hg (1032.0 mb)
Winds: from the NE (50 degrees) at 12 MPH (10 knots; 5.1 m/s)
Visibility: 6 or more miles (10+ km)
Ceiling: at least 12,000 feet AGL
Clouds: few clouds at 3500 feet AGL
Weather: no significant weather observed at this time

METAR text: LEBB 201330Z 04010KT 350V070 9999 FEW035 14/02 Q1032 NOSIG
Conditions at: LEBB (BILBAO/SONDICA , ES) observed 1330 UTC 20 March 2019
Temperature: 14.0°C (57°F)
Dewpoint: 2.0°C (36°F) [RH = 44%]
Pressure (altimeter): 30.47 inches Hg (1032.0 mb)
Winds: from the NE (40 degrees) at 12 MPH (10 knots; 5.1 m/s)
Visibility: 6 or more miles (10+ km)
Ceiling: at least 12,000 feet AGL
Clouds: few clouds at 3500 feet AGL
Weather: no significant weather observed at this time

METAR text: LEBB 201300Z 06008KT 020V110 9999 FEW035 14/01 Q1033 NOSIG
Conditions at: LEBB (BILBAO/SONDICA , ES) observed 1300 UTC 20 March 2019
Temperature: 14.0°C (57°F)
Dewpoint: 1.0°C (34°F) [RH = 41%]
Pressure (altimeter): 30.50 inches Hg (1033.0 mb)
Winds: from the ENE (60 degrees) at 9 MPH (8 knots; 4.1 m/s)
Visibility: 6 or more miles (10+ km)
Ceiling: at least 12,000 feet AGL
Clouds: few clouds at 3500 feet AGL
Weather: no significant weather observed at this time

METAR text: LEBB 201230Z 06006KT 360V110 9999 FEW030 14/02 Q1033 NOSIG
Conditions at: LEBB (BILBAO/SONDICA , ES) observed 1230 UTC 20 March 2019
Temperature: 14.0°C (57°F)
Dewpoint: 2.0°C (36°F) [RH = 44%]
Pressure (altimeter): 30.50 inches Hg (1033.0 mb)
Winds: from the ENE (60 degrees) at 7 MPH (6 knots; 3.1 m/s)
Visibility: 6 or more miles (10+ km)
Ceiling: at least 12,000 feet AGL
Clouds: few clouds at 3000 feet AGL
Weather: no significant weather observed at this time

METAR text: LEBB 201200Z 06007KT 010V090 9999 FEW030 BKN055 14/01 Q1033 NOSIG
Conditions at: LEBB (BILBAO/SONDICA , ES) observed 1200 UTC 20 March 2019
Temperature: 14.0°C (57°F)
Dewpoint: 1.0°C (34°F) [RH = 41%]
Pressure (altimeter): 30.50 inches Hg (1033.0 mb)
Winds: from the ENE (60 degrees) at 8 MPH (7 knots; 3.6 m/s)
Visibility: 6 or more miles (10+ km)
Ceiling: 5500 feet AGL
Clouds: few clouds at 3000 feet AGL
broken clouds at 5500 feet AGL
Weather: no significant weather observed at this time

METAR text: LEBB 201130Z 06006KT 330V110 9999 FEW030 BKN055 14/02 Q1033 NOSIG
Conditions at: LEBB (BILBAO/SONDICA , ES) observed 1130 UTC 20 March 2019
Temperature: 14.0°C (57°F)
Dewpoint: 2.0°C (36°F) [RH = 44%]
Pressure (altimeter): 30.50 inches Hg (1033.0 mb)
Winds: from the ENE (60 degrees) at 7 MPH (6 knots; 3.1 m/s)
Visibility: 6 or more miles (10+ km)
Ceiling: 5500 feet AGL
Clouds: few clouds at 3000 feet AGL
broken clouds at 5500 feet AGL
Weather: no significant weather observed at this time

METAR text: LEBB 201100Z 10003KT 040V160 9999 SCT030 BKN055 14/02 Q1034 NOSIG
Conditions at: LEBB (BILBAO/SONDICA , ES) observed 1100 UTC 20 March 2019
Temperature: 14.0°C (57°F)
Dewpoint: 2.0°C (36°F) [RH = 44%]
Pressure (altimeter): 30.53 inches Hg (1034.0 mb)
Winds: from the E (100 degrees) at 3 MPH (3 knots; 1.5 m/s)
Visibility: 6 or more miles (10+ km)
Ceiling: 5500 feet AGL
Clouds: scattered clouds at 3000 feet AGL
broken clouds at 5500 feet AGL
Weather: no significant weather observed at this time

METAR text: LEBB 201030Z 08005KT 010V120 9999 SCT030 BKN055 14/04 Q1034 NOSIG
Conditions at: LEBB (BILBAO/SONDICA , ES) observed 1030 UTC 20 March 2019
Temperature: 14.0°C (57°F)
Dewpoint: 4.0°C (39°F) [RH = 51%]
Pressure (altimeter): 30.53 inches Hg (1034.0 mb)
Winds: from the E (80 degrees) at 6 MPH (5 knots; 2.6 m/s)
Visibility: 6 or more miles (10+ km)
Ceiling: 5500 feet AGL
Clouds: scattered clouds at 3000 feet AGL
broken clouds at 5500 feet AGL
Weather: no significant weather observed at this time

METAR text: LEBB 201000Z VRB01KT 9999 SCT030 SCT045 12/07 Q1034 NOSIG
Conditions at: LEBB (BILBAO/SONDICA , ES) observed 1000 UTC 20 March 2019
Temperature: 12.0°C (54°F)
Dewpoint: 7.0°C (45°F) [RH = 71%]
Pressure (altimeter): 30.53 inches Hg (1034.0 mb)
Winds: variable direction winds at 1 MPH (1 knots; 0.5 m/s)
Visibility: 6 or more miles (10+ km)
Ceiling: at least 12,000 feet AGL
Clouds: scattered clouds at 3000 feet AGL
scattered clouds at 4500 feet AGL
Weather: no significant weather observed at this time

METAR text: LEBB 200930Z VRB02KT 9999 FEW020 SCT035 12/07 Q1033 NOSIG
Conditions at: LEBB (BILBAO/SONDICA , ES) observed 0930 UTC 20 March 2019
Temperature: 12.0°C (54°F)
Dewpoint: 7.0°C (45°F) [RH = 71%]
Pressure (altimeter): 30.50 inches Hg (1033.0 mb)
Winds: variable direction winds at 2 MPH (2 knots; 1.0 m/s)
Visibility: 6 or more miles (10+ km)
Ceiling: at least 12,000 feet AGL
Clouds: few clouds at 2000 feet AGL
scattered clouds at 3500 feet AGL
Weather: no significant weather observed at this time

METAR text: LEBB 200900Z 00000KT 9999 SCT045 12/08 Q1033 NOSIG
Conditions at: LEBB (BILBAO/SONDICA , ES) observed 0900 UTC 20 March 2019
Temperature: 12.0°C (54°F)
Dewpoint: 8.0°C (46°F) [RH = 76%]
Pressure (altimeter): 30.50 inches Hg (1033.0 mb)
Winds: calm
Visibility: 6 or more miles (10+ km)
Ceiling: at least 12,000 feet AGL
Clouds: scattered clouds at 4500 feet AGL
Weather: no significant weather observed at this time

METAR text: LEBB 200830Z VRB01KT 9999 SCT045 11/09 Q1033 TEMPO RA
Conditions at: LEBB (BILBAO/SONDICA , ES) observed 0830 UTC 20 March 2019
Temperature: 11.0°C (52°F)
Dewpoint: 9.0°C (48°F) [RH = 87%]
Pressure (altimeter): 30.50 inches Hg (1033.0 mb)
Winds: variable direction winds at 1 MPH (1 knots; 0.5 m/s)
Visibility: 6 or more miles (10+ km)
Ceiling: at least 12,000 feet AGL
Clouds: scattered clouds at 4500 feet AGL
Weather: no significant weather observed at this time

METAR text: LEBB 200800Z VRB02KT 9999 SCT045 SCT060 09/08 Q1033 TEMPO RA
Conditions at: LEBB (BILBAO/SONDICA , ES) observed 0800 UTC 20 March 2019
Temperature: 9.0°C (48°F)
Dewpoint: 8.0°C (46°F) [RH = 93%]
Pressure (altimeter): 30.50 inches Hg (1033.0 mb)
Winds: variable direction winds at 2 MPH (2 knots; 1.0 m/s)
Visibility: 6 or more miles (10+ km)
Ceiling: at least 12,000 feet AGL
Clouds: scattered clouds at 4500 feet AGL
scattered clouds at 6000 feet AGL
Weather: no significant weather observed at this time

METAR text: LEBB 200730Z VRB01KT 9999 SCT045 BKN060 09/08 Q1033 TEMPO RA
Conditions at: LEBB (BILBAO/SONDICA , ES) observed 0730 UTC 20 March 2019
Temperature: 9.0°C (48°F)
Dewpoint: 8.0°C (46°F) [RH = 93%]
Pressure (altimeter): 30.50 inches Hg (1033.0 mb)
Winds: variable direction winds at 1 MPH (1 knots; 0.5 m/s)
Visibility: 6 or more miles (10+ km)
Ceiling: 6000 feet AGL
Clouds: scattered clouds at 4500 feet AGL
broken clouds at 6000 feet AGL
Weather: no significant weather observed at this time

METAR text: LEBB 200700Z VRB02KT 9999 FEW035 SCT045 BKN055 08/08 Q1032 TEMPO RA
Conditions at: LEBB (BILBAO/SONDICA , ES) observed 0700 UTC 20 March 2019
Temperature: 8.0°C (46°F)
Dewpoint: 8.0°C (46°F) [RH = 100%]
Pressure (altimeter): 30.47 inches Hg (1032.0 mb)
Winds: variable direction winds at 2 MPH (2 knots; 1.0 m/s)
Visibility: 6 or more miles (10+ km)
Ceiling: 5500 feet AGL
Clouds: few clouds at 3500 feet AGL
scattered clouds at 4500 feet AGL
broken clouds at 5500 feet AGL
Weather: no significant weather observed at this time

METAR text: LEBB 200630Z 13003KT 070V160 9999 FEW035 SCT045 BKN055 08/08 Q1032 TEMPO RA
Conditions at: LEBB (BILBAO/SONDICA , ES) observed 0630 UTC 20 March 2019
Temperature: 8.0°C (46°F)
Dewpoint: 8.0°C (46°F) [RH = 100%]
Pressure (altimeter): 30.47 inches Hg (1032.0 mb)
Winds: from the SE (130 degrees) at 3 MPH (3 knots; 1.5 m/s)
Visibility: 6 or more miles (10+ km)
Ceiling: 5500 feet AGL
Clouds: few clouds at 3500 feet AGL
scattered clouds at 4500 feet AGL
broken clouds at 5500 feet AGL
Weather: no significant weather observed at this time

METAR text: LEBB 200600Z 00000KT 9999 FEW025 SCT033 BKN040 08/08 Q1032 TEMPO RA
Conditions at: LEBB (BILBAO/SONDICA , ES) observed 0600 UTC 20 March 2019
Temperature: 8.0°C (46°F)
Dewpoint: 8.0°C (46°F) [RH = 100%]
Pressure (altimeter): 30.47 inches Hg (1032.0 mb)
Winds: calm
Visibility: 6 or more miles (10+ km)
Ceiling: 4000 feet AGL
Clouds: few clouds at 2500 feet AGL
scattered clouds at 3300 feet AGL
broken clouds at 4000 feet AGL
Weather: no significant weather observed at this time

METAR text: LEBB 200530Z 11003KT 9999 FEW033 SCT040 BKN060 08/08 Q1032 TEMPO RA
Conditions at: LEBB (BILBAO/SONDICA , ES) observed 0530 UTC 20 March 2019
Temperature: 8.0°C (46°F)
Dewpoint: 8.0°C (46°F) [RH = 100%]
Pressure (altimeter): 30.47 inches Hg (1032.0 mb)
Winds: from the ESE (110 degrees) at 3 MPH (3 knots; 1.5 m/s)
Visibility: 6 or more miles (10+ km)
Ceiling: 6000 feet AGL
Clouds: few clouds at 3300 feet AGL
scattered clouds at 4000 feet AGL
broken clouds at 6000 feet AGL
Weather: no significant weather observed at this time

METAR text: LEBB 200500Z VRB02KT 9999 -RA SCT045 BKN060 08/08 Q1031 NOSIG
Conditions at: LEBB (BILBAO/SONDICA , ES) observed 0500 UTC 20 March 2019
Temperature: 8.0°C (46°F)
Dewpoint: 8.0°C (46°F) [RH = 100%]
Pressure (altimeter): 30.44 inches Hg (1031.0 mb)
Winds: variable direction winds at 2 MPH (2 knots; 1.0 m/s)
Visibility: 6 or more miles (10+ km)
Ceiling: 6000 feet AGL
Clouds: scattered clouds at 4500 feet AGL
broken clouds at 6000 feet AGL
Weather: -RA  (light rain)

METAR text: LEBB 200430Z VRB02KT 9999 SCT035 BKN060 08/08 Q1032 NOSIG
Conditions at: LEBB (BILBAO/SONDICA , ES) observed 0430 UTC 20 March 2019
Temperature: 8.0°C (46°F)
Dewpoint: 8.0°C (46°F) [RH = 100%]
Pressure (altimeter): 30.47 inches Hg (1032.0 mb)
Winds: variable direction winds at 2 MPH (2 knots; 1.0 m/s)
Visibility: 6 or more miles (10+ km)
Ceiling: 6000 feet AGL
Clouds: scattered clouds at 3500 feet AGL
broken clouds at 6000 feet AGL
Weather: no significant weather observed at this time

METAR text: LEBB 200400Z 00000KT 9999 SCT035 BKN060 08/08 Q1031 NOSIG
Conditions at: LEBB (BILBAO/SONDICA , ES) observed 0400 UTC 20 March 2019
Temperature: 8.0°C (46°F)
Dewpoint: 8.0°C (46°F) [RH = 100%]
Pressure (altimeter): 30.44 inches Hg (1031.0 mb)
Winds: calm
Visibility: 6 or more miles (10+ km)
Ceiling: 6000 feet AGL
Clouds: scattered clouds at 3500 feet AGL
broken clouds at 6000 feet AGL
Weather: no significant weather observed at this time

METAR text: LEBB 200330Z AUTO 00000KT 9999 FEW039/// BKN050/// 08/08 Q1032
Conditions at: LEBB (BILBAO/SONDICA , ES) observed 0330 UTC 20 March 2019
Temperature: 8.0°C (46°F)
Dewpoint: 8.0°C (46°F) [RH = 100%]
Pressure (altimeter): 30.47 inches Hg (1032.0 mb)
Winds: calm
Visibility: 6 or more miles (10+ km)
Ceiling: 5000 feet AGL
Clouds: few clouds at 3900 feet AGL
broken clouds at 5000 feet AGL
Weather: no significant weather observed at this time

METAR text: LEBB 200300Z AUTO 00000KT 9999 FEW044 BKN058 08/08 Q1032
Conditions at: LEBB (BILBAO/SONDICA , ES) observed 0300 UTC 20 March 2019
Temperature: 8.0°C (46°F)
Dewpoint: 8.0°C (46°F) [RH = 100%]
Pressure (altimeter): 30.47 inches Hg (1032.0 mb)
Winds: calm
Visibility: 6 or more miles (10+ km)
Ceiling: 5800 feet AGL
Clouds: few clouds at 4400 feet AGL
broken clouds at 5800 feet AGL
Weather: no significant weather observed at this time

METAR text: LEBB 200230Z AUTO 00000KT 9999 FEW049 BKN059 08/08 Q1032
Conditions at: LEBB (BILBAO/SONDICA , ES) observed 0230 UTC 20 March 2019
Temperature: 8.0°C (46°F)
Dewpoint: 8.0°C (46°F) [RH = 100%]
Pressure (altimeter): 30.47 inches Hg (1032.0 mb)
Winds: calm
Visibility: 6 or more miles (10+ km)
Ceiling: 5900 feet AGL
Clouds: few clouds at 4900 feet AGL
broken clouds at 5900 feet AGL
Weather: no significant weather observed at this time

METAR text: LEBB 200200Z AUTO 00000KT 9999 FEW010/// BKN060/// 09/08 Q1032
Conditions at: LEBB (BILBAO/SONDICA , ES) observed 0200 UTC 20 March 2019
Temperature: 9.0°C (48°F)
Dewpoint: 8.0°C (46°F) [RH = 93%]
Pressure (altimeter): 30.47 inches Hg (1032.0 mb)
Winds: calm
Visibility: 6 or more miles (10+ km)
Ceiling: 6000 feet AGL
Clouds: few clouds at 1000 feet AGL
broken clouds at 6000 feet AGL
Weather: no significant weather observed at this time

METAR text: LEBB 200130Z AUTO 00000KT 9999 BKN060/// 09/08 Q1032
Conditions at: LEBB (BILBAO/SONDICA , ES) observed 0130 UTC 20 March 2019
Temperature: 9.0°C (48°F)
Dewpoint: 8.0°C (46°F) [RH = 93%]
Pressure (altimeter): 30.47 inches Hg (1032.0 mb)
Winds: calm
Visibility: 6 or more miles (10+ km)
Ceiling: 6000 feet AGL
Clouds: broken clouds at 6000 feet AGL
Weather: no significant weather observed at this time

METAR text: LEBB 200100Z AUTO 00000KT 9999 FEW023/// SCT030/// BKN058/// 09/08 Q1032
Conditions at: LEBB (BILBAO/SONDICA , ES) observed 0100 UTC 20 March 2019
Temperature: 9.0°C (48°F)
Dewpoint: 8.0°C (46°F) [RH = 93%]
Pressure (altimeter): 30.47 inches Hg (1032.0 mb)
Winds: calm
Visibility: 6 or more miles (10+ km)
Ceiling: 5800 feet AGL
Clouds: few clouds at 2300 feet AGL
scattered clouds at 3000 feet AGL
broken clouds at 5800 feet AGL
Weather: no significant weather observed at this time

METAR text: LEBB 200030Z AUTO 00000KT 9999 FEW023/// SCT030/// BKN057/// 09/08 Q1032
Conditions at: LEBB (BILBAO/SONDICA , ES) observed 0030 UTC 20 March 2019
Temperature: 9.0°C (48°F)
Dewpoint: 8.0°C (46°F) [RH = 93%]
Pressure (altimeter): 30.47 inches Hg (1032.0 mb)
Winds: calm
Visibility: 6 or more miles (10+ km)
Ceiling: 5700 feet AGL
Clouds: few clouds at 2300 feet AGL
scattered clouds at 3000 feet AGL
broken clouds at 5700 feet AGL
Weather: no significant weather observed at this time

METAR text: LEBB 200000Z AUTO VRB01KT 9999 SCT024/// SCT038/// BKN046/// 09/08 Q1033
Conditions at: LEBB (BILBAO/SONDICA , ES) observed 0000 UTC 20 March 2019
Temperature: 9.0°C (48°F)
Dewpoint: 8.0°C (46°F) [RH = 93%]
Pressure (altimeter): 30.50 inches Hg (1033.0 mb)
Winds: variable direction winds at 1 MPH (1 knots; 0.5 m/s)
Visibility: 6 or more miles (10+ km)
Ceiling: 4600 feet AGL
Clouds: scattered clouds at 2400 feet AGL
scattered clouds at 3800 feet AGL
broken clouds at 4600 feet AGL
Weather: no significant weather observed at this time

METAR text: LEBB 192330Z AUTO VRB02KT 9999 FEW026/// SCT043/// BKN060/// 09/08 Q1033
Conditions at: LEBB (BILBAO/SONDICA , ES) observed 2330 UTC 19 March 2019
Temperature: 9.0°C (48°F)
Dewpoint: 8.0°C (46°F) [RH = 93%]
Pressure (altimeter): 30.50 inches Hg (1033.0 mb)
Winds: variable direction winds at 2 MPH (2 knots; 1.0 m/s)
Visibility: 6 or more miles (10+ km)
Ceiling: 6000 feet AGL
Clouds: few clouds at 2600 feet AGL
scattered clouds at 4300 feet AGL
broken clouds at 6000 feet AGL
Weather: no significant weather observed at this time

METAR text: LEBB 192300Z AUTO VRB01KT 9999 FEW045 BKN060 09/07 Q1033
Conditions at: LEBB (BILBAO/SONDICA , ES) observed 2300 UTC 19 March 2019
Temperature: 9.0°C (48°F)
Dewpoint: 7.0°C (45°F) [RH = 87%]
Pressure (altimeter): 30.50 inches Hg (1033.0 mb)
Winds: variable direction winds at 1 MPH (1 knots; 0.5 m/s)
Visibility: 6 or more miles (10+ km)
Ceiling: 6000 feet AGL
Clouds: few clouds at 4500 feet AGL
broken clouds at 6000 feet AGL
Weather: no significant weather observed at this time

METAR text: LEBB 192230Z 15003KT 9999 FEW025 BKN059 09/08 Q1032 NOSIG
Conditions at: LEBB (BILBAO/SONDICA , ES) observed 2230 UTC 19 March 2019
Temperature: 9.0°C (48°F)
Dewpoint: 8.0°C (46°F) [RH = 93%]
Pressure (altimeter): 30.47 inches Hg (1032.0 mb)
Winds: from the SSE (150 degrees) at 3 MPH (3 knots; 1.5 m/s)
Visibility: 6 or more miles (10+ km)
Ceiling: 5900 feet AGL
Clouds: few clouds at 2500 feet AGL
broken clouds at 5900 feet AGL
Weather: no significant weather observed at this time

METAR text: LEBB 192200Z VRB01KT 9999 FEW025 SCT046 BKN060 10/08 Q1032 NOSIG
Conditions at: LEBB (BILBAO/SONDICA , ES) observed 2200 UTC 19 March 2019
Temperature: 10.0°C (50°F)
Dewpoint: 8.0°C (46°F) [RH = 87%]
Pressure (altimeter): 30.47 inches Hg (1032.0 mb)
Winds: variable direction winds at 1 MPH (1 knots; 0.5 m/s)
Visibility: 6 or more miles (10+ km)
Ceiling: 6000 feet AGL
Clouds: few clouds at 2500 feet AGL
scattered clouds at 4600 feet AGL
broken clouds at 6000 feet AGL
Weather: no significant weather observed at this time

METAR text: LEBB 192130Z 00000KT 9999 FEW025 SCT046 BKN055 10/07 Q1032 NOSIG
Conditions at: LEBB (BILBAO/SONDICA , ES) observed 2130 UTC 19 March 2019
Temperature: 10.0°C (50°F)
Dewpoint: 7.0°C (45°F) [RH = 82%]
Pressure (altimeter): 30.47 inches Hg (1032.0 mb)
Winds: calm
Visibility: 6 or more miles (10+ km)
Ceiling: 5500 feet AGL
Clouds: few clouds at 2500 feet AGL
scattered clouds at 4600 feet AGL
broken clouds at 5500 feet AGL
Weather: no significant weather observed at this time

METAR text: LEBB 192100Z 36003KT 290V060 9999 FEW025 BKN046 10/08 Q1032 NOSIG
Conditions at: LEBB (BILBAO/SONDICA , ES) observed 2100 UTC 19 March 2019
Temperature: 10.0°C (50°F)
Dewpoint: 8.0°C (46°F) [RH = 87%]
Pressure (altimeter): 30.47 inches Hg (1032.0 mb)
Winds: from the N (360 degrees) at 3 MPH (3 knots; 1.5 m/s)
Visibility: 6 or more miles (10+ km)
Ceiling: 4600 feet AGL
Clouds: few clouds at 2500 feet AGL
broken clouds at 4600 feet AGL
Weather: no significant weather observed at this time

METAR text: LEBB 192030Z VRB01KT 9999 FEW025 BKN046 10/07 Q1032 NOSIG
Conditions at: LEBB (BILBAO/SONDICA , ES) observed 2030 UTC 19 March 2019
Temperature: 10.0°C (50°F)
Dewpoint: 7.0°C (45°F) [RH = 82%]
Pressure (altimeter): 30.47 inches Hg (1032.0 mb)
Winds: variable direction winds at 1 MPH (1 knots; 0.5 m/s)
Visibility: 6 or more miles (10+ km)
Ceiling: 4600 feet AGL
Clouds: few clouds at 2500 feet AGL
broken clouds at 4600 feet AGL
Weather: no significant weather observed at this time

METAR text: LEBB 192000Z VRB02KT 9999 FEW025 BKN056 10/07 Q1032 NOSIG
Conditions at: LEBB (BILBAO/SONDICA , ES) observed 2000 UTC 19 March 2019
Temperature: 10.0°C (50°F)
Dewpoint: 7.0°C (45°F) [RH = 82%]
Pressure (altimeter): 30.47 inches Hg (1032.0 mb)
Winds: variable direction winds at 2 MPH (2 knots; 1.0 m/s)
Visibility: 6 or more miles (10+ km)
Ceiling: 5600 feet AGL
Clouds: few clouds at 2500 feet AGL
broken clouds at 5600 feet AGL
Weather: no significant weather observed at this time

METAR text: LEBB 191930Z 02003KT 350V060 9999 FEW025 BKN058 10/07 Q1031 NOSIG
Conditions at: LEBB (BILBAO/SONDICA , ES) observed 1930 UTC 19 March 2019
Temperature: 10.0°C (50°F)
Dewpoint: 7.0°C (45°F) [RH = 82%]
Pressure (altimeter): 30.44 inches Hg (1031.0 mb)
Winds: from the NNE (20 degrees) at 3 MPH (3 knots; 1.5 m/s)
Visibility: 6 or more miles (10+ km)
Ceiling: 5800 feet AGL
Clouds: few clouds at 2500 feet AGL
broken clouds at 5800 feet AGL
Weather: no significant weather observed at this time

METAR text: LEBB 191900Z 35004KT 320V020 9999 FEW025 SCT035 BKN058 11/07 Q1031 NOSIG
Conditions at: LEBB (BILBAO/SONDICA , ES) observed 1900 UTC 19 March 2019
Temperature: 11.0°C (52°F)
Dewpoint: 7.0°C (45°F) [RH = 76%]
Pressure (altimeter): 30.44 inches Hg (1031.0 mb)
Winds: from the N (350 degrees) at 5 MPH (4 knots; 2.1 m/s)
Visibility: 6 or more miles (10+ km)
Ceiling: 5800 feet AGL
Clouds: few clouds at 2500 feet AGL
scattered clouds at 3500 feet AGL
broken clouds at 5800 feet AGL
Weather: no significant weather observed at this time

METAR text: LEBB 191830Z 35003KT 9999 FEW025 SCT040 BKN050 11/07 Q1031 NOSIG
Conditions at: LEBB (BILBAO/SONDICA , ES) observed 1830 UTC 19 March 2019
Temperature: 11.0°C (52°F)
Dewpoint: 7.0°C (45°F) [RH = 76%]
Pressure (altimeter): 30.44 inches Hg (1031.0 mb)
Winds: from the N (350 degrees) at 3 MPH (3 knots; 1.5 m/s)
Visibility: 6 or more miles (10+ km)
Ceiling: 5000 feet AGL
Clouds: few clouds at 2500 feet AGL
scattered clouds at 4000 feet AGL
broken clouds at 5000 feet AGL
Weather: no significant weather observed at this time

METAR text: LEBB 191800Z 06004KT 010V080 9999 FEW025 BKN052 11/06 Q1031 NOSIG
Conditions at: LEBB (BILBAO/SONDICA , ES) observed 1800 UTC 19 March 2019
Temperature: 11.0°C (52°F)
Dewpoint: 6.0°C (43°F) [RH = 71%]
Pressure (altimeter): 30.44 inches Hg (1031.0 mb)
Winds: from the ENE (60 degrees) at 5 MPH (4 knots; 2.1 m/s)
Visibility: 6 or more miles (10+ km)
Ceiling: 5200 feet AGL
Clouds: few clouds at 2500 feet AGL
broken clouds at 5200 feet AGL
Weather: no significant weather observed at this time

METAR text: LEBB 191730Z 08004KT 030V110 9999 FEW028 SCT042 BKN057 11/06 Q1031 NOSIG
Conditions at: LEBB (BILBAO/SONDICA , ES) observed 1730 UTC 19 March 2019
Temperature: 11.0°C (52°F)
Dewpoint: 6.0°C (43°F) [RH = 71%]
Pressure (altimeter): 30.44 inches Hg (1031.0 mb)
Winds: from the E (80 degrees) at 5 MPH (4 knots; 2.1 m/s)
Visibility: 6 or more miles (10+ km)
Ceiling: 5700 feet AGL
Clouds: few clouds at 2800 feet AGL
scattered clouds at 4200 feet AGL
broken clouds at 5700 feet AGL
Weather: no significant weather observed at this time

METAR text: LEBB 191700Z 36006KT 9999 FEW022 BKN032 BKN060 11/06 Q1030 NOSIG
Conditions at: LEBB (BILBAO/SONDICA , ES) observed 1700 UTC 19 March 2019
Temperature: 11.0°C (52°F)
Dewpoint: 6.0°C (43°F) [RH = 71%]
Pressure (altimeter): 30.41 inches Hg (1030.0 mb)
Winds: from the N (360 degrees) at 7 MPH (6 knots; 3.1 m/s)
Visibility: 6 or more miles (10+ km)
Ceiling: 3200 feet AGL
Clouds: few clouds at 2200 feet AGL
broken clouds at 3200 feet AGL
broken clouds at 6000 feet AGL
Weather: no significant weather observed at this time

METAR text: LEBB 191630Z 02004KT 330V080 9999 FEW025 BKN038 BKN050 12/06 Q1030 NOSIG
Conditions at: LEBB (BILBAO/SONDICA , ES) observed 1630 UTC 19 March 2019
Temperature: 12.0°C (54°F)
Dewpoint: 6.0°C (43°F) [RH = 67%]
Pressure (altimeter): 30.41 inches Hg (1030.0 mb)
Winds: from the NNE (20 degrees) at 5 MPH (4 knots; 2.1 m/s)
Visibility: 6 or more miles (10+ km)
Ceiling: 3800 feet AGL
Clouds: few clouds at 2500 feet AGL
broken clouds at 3800 feet AGL
broken clouds at 5000 feet AGL
Weather: no significant weather observed at this time

METAR text: LEBB 191600Z 05004KT 350V100 9999 FEW027 BKN044 12/06 Q1030 NOSIG
Conditions at: LEBB (BILBAO/SONDICA , ES) observed 1600 UTC 19 March 2019
Temperature: 12.0°C (54°F)
Dewpoint: 6.0°C (43°F) [RH = 67%]
Pressure (altimeter): 30.41 inches Hg (1030.0 mb)
Winds: from the NE (50 degrees) at 5 MPH (4 knots; 2.1 m/s)
Visibility: 6 or more miles (10+ km)
Ceiling: 4400 feet AGL
Clouds: few clouds at 2700 feet AGL
broken clouds at 4400 feet AGL
Weather: no significant weather observed at this time

METAR text: LEBB 191530Z 03007KT 360V080 9999 FEW026 SCT034 BKN047 12/06 Q1030 NOSIG
Conditions at: LEBB (BILBAO/SONDICA , ES) observed 1530 UTC 19 March 2019
Temperature: 12.0°C (54°F)
Dewpoint: 6.0°C (43°F) [RH = 67%]
Pressure (altimeter): 30.41 inches Hg (1030.0 mb)
Winds: from the NNE (30 degrees) at 8 MPH (7 knots; 3.6 m/s)
Visibility: 6 or more miles (10+ km)
Ceiling: 4700 feet AGL
Clouds: few clouds at 2600 feet AGL
scattered clouds at 3400 feet AGL
broken clouds at 4700 feet AGL
Weather: no significant weather observed at this time

METAR text: LEBB 191500Z 03009KT 350V070 9999 SCT026 SCT046 BKN052 12/07 Q1030 NOSIG
Conditions at: LEBB (BILBAO/SONDICA , ES) observed 1500 UTC 19 March 2019
Temperature: 12.0°C (54°F)
Dewpoint: 7.0°C (45°F) [RH = 71%]
Pressure (altimeter): 30.41 inches Hg (1030.0 mb)
Winds: from the NNE (30 degrees) at 10 MPH (9 knots; 4.6 m/s)
Visibility: 6 or more miles (10+ km)
Ceiling: 5200 feet AGL
Clouds: scattered clouds at 2600 feet AGL
scattered clouds at 4600 feet AGL
broken clouds at 5200 feet AGL
Weather: no significant weather observed at this time

METAR text: LEBB 191430Z VRB06KT 9999 FEW020 SCT040 BKN055 12/07 Q1030 NOSIG
Conditions at: LEBB (BILBAO/SONDICA , ES) observed 1430 UTC 19 March 2019
Temperature: 12.0°C (54°F)
Dewpoint: 7.0°C (45°F) [RH = 71%]
Pressure (altimeter): 30.41 inches Hg (1030.0 mb)
Winds: variable direction winds at 7 MPH (6 knots; 3.1 m/s)
Visibility: 6 or more miles (10+ km)
Ceiling: 5500 feet AGL
Clouds: few clouds at 2000 feet AGL
scattered clouds at 4000 feet AGL
broken clouds at 5500 feet AGL
Weather: no significant weather observed at this time

METAR text: LEBB 191400Z 01006KT 330V080 9999 FEW025 BKN042 BKN050 11/07 Q1030 NOSIG
Conditions at: LEBB (BILBAO/SONDICA , ES) observed 1400 UTC 19 March 2019
Temperature: 11.0°C (52°F)
Dewpoint: 7.0°C (45°F) [RH = 76%]
Pressure (altimeter): 30.41 inches Hg (1030.0 mb)
Winds: from the N (10 degrees) at 7 MPH (6 knots; 3.1 m/s)
Visibility: 6 or more miles (10+ km)
Ceiling: 4200 feet AGL
Clouds: few clouds at 2500 feet AGL
broken clouds at 4200 feet AGL
broken clouds at 5000 feet AGL
Weather: no significant weather observed at this time

METAR text: LEBB 191330Z 03008KT 320V060 9999 FEW025 SCT035 BKN045 11/06 Q1030 NOSIG
Conditions at: LEBB (BILBAO/SONDICA , ES) observed 1330 UTC 19 March 2019
Temperature: 11.0°C (52°F)
Dewpoint: 6.0°C (43°F) [RH = 71%]
Pressure (altimeter): 30.41 inches Hg (1030.0 mb)
Winds: from the NNE (30 degrees) at 9 MPH (8 knots; 4.1 m/s)
Visibility: 6 or more miles (10+ km)
Ceiling: 4500 feet AGL
Clouds: few clouds at 2500 feet AGL
scattered clouds at 3500 feet AGL
broken clouds at 4500 feet AGL
Weather: no significant weather observed at this time

METAR text: LEBB 191300Z 03012KT 350V080 9999 FEW025 SCT035 BKN045 12/07 Q1030 NOSIG
Conditions at: LEBB (BILBAO/SONDICA , ES) observed 1300 UTC 19 March 2019
Temperature: 12.0°C (54°F)
Dewpoint: 7.0°C (45°F) [RH = 71%]
Pressure (altimeter): 30.41 inches Hg (1030.0 mb)
Winds: from the NNE (30 degrees) at 14 MPH (12 knots; 6.2 m/s)
Visibility: 6 or more miles (10+ km)
Ceiling: 4500 feet AGL
Clouds: few clouds at 2500 feet AGL
scattered clouds at 3500 feet AGL
broken clouds at 4500 feet AGL
Weather: no significant weather observed at this time

METAR text: LEBB 191230Z 01009KT 9999 FEW025 SCT035 BKN045 13/07 Q1030 NOSIG
Conditions at: LEBB (BILBAO/SONDICA , ES) observed 1230 UTC 19 March 2019
Temperature: 13.0°C (55°F)
Dewpoint: 7.0°C (45°F) [RH = 67%]
Pressure (altimeter): 30.41 inches Hg (1030.0 mb)
Winds: from the N (10 degrees) at 10 MPH (9 knots; 4.6 m/s)
Visibility: 6 or more miles (10+ km)
Ceiling: 4500 feet AGL
Clouds: few clouds at 2500 feet AGL
scattered clouds at 3500 feet AGL
broken clouds at 4500 feet AGL
Weather: no significant weather observed at this time

METAR text: LEBB 191200Z 03009KT 340V080 9999 FEW022 SCT035 BKN045 13/08 Q1030 NOSIG
Conditions at: LEBB (BILBAO/SONDICA , ES) observed 1200 UTC 19 March 2019
Temperature: 13.0°C (55°F)
Dewpoint: 8.0°C (46°F) [RH = 72%]
Pressure (altimeter): 30.41 inches Hg (1030.0 mb)
Winds: from the NNE (30 degrees) at 10 MPH (9 knots; 4.6 m/s)
Visibility: 6 or more miles (10+ km)
Ceiling: 4500 feet AGL
Clouds: few clouds at 2200 feet AGL
scattered clouds at 3500 feet AGL
broken clouds at 4500 feet AGL
Weather: no significant weather observed at this time

METAR text: LEBB 191130Z 04009KT 340V090 9999 FEW020 SCT030 BKN040 12/08 Q1030 NOSIG
Conditions at: LEBB (BILBAO/SONDICA , ES) observed 1130 UTC 19 March 2019
Temperature: 12.0°C (54°F)
Dewpoint: 8.0°C (46°F) [RH = 76%]
Pressure (altimeter): 30.41 inches Hg (1030.0 mb)
Winds: from the NE (40 degrees) at 10 MPH (9 knots; 4.6 m/s)
Visibility: 6 or more miles (10+ km)
Ceiling: 4000 feet AGL
Clouds: few clouds at 2000 feet AGL
scattered clouds at 3000 feet AGL
broken clouds at 4000 feet AGL
Weather: no significant weather observed at this time

METAR text: LEBB 191100Z 02006KT 300V070 9999 FEW018 SCT025 BKN035 12/08 Q1029 NOSIG
Conditions at: LEBB (BILBAO/SONDICA , ES) observed 1100 UTC 19 March 2019
Temperature: 12.0°C (54°F)
Dewpoint: 8.0°C (46°F) [RH = 76%]
Pressure (altimeter): 30.38 inches Hg (1029.0 mb)
Winds: from the NNE (20 degrees) at 7 MPH (6 knots; 3.1 m/s)
Visibility: 6 or more miles (10+ km)
Ceiling: 3500 feet AGL
Clouds: few clouds at 1800 feet AGL
scattered clouds at 2500 feet AGL
broken clouds at 3500 feet AGL
Weather: no significant weather observed at this time

METAR text: LEBB 191030Z 04006KT 320V070 9999 FEW018 SCT025 BKN030 11/08 Q1029 NOSIG
Conditions at: LEBB (BILBAO/SONDICA , ES) observed 1030 UTC 19 March 2019
Temperature: 11.0°C (52°F)
Dewpoint: 8.0°C (46°F) [RH = 82%]
Pressure (altimeter): 30.38 inches Hg (1029.0 mb)
Winds: from the NE (40 degrees) at 7 MPH (6 knots; 3.1 m/s)
Visibility: 6 or more miles (10+ km)
Ceiling: 3000 feet AGL
Clouds: few clouds at 1800 feet AGL
scattered clouds at 2500 feet AGL
broken clouds at 3000 feet AGL
Weather: no significant weather observed at this time

METAR text: LEBB 191000Z VRB02KT 9999 FEW014 SCT025 BKN035 11/08 Q1029 NOSIG
Conditions at: LEBB (BILBAO/SONDICA , ES) observed 1000 UTC 19 March 2019
Temperature: 11.0°C (52°F)
Dewpoint: 8.0°C (46°F) [RH = 82%]
Pressure (altimeter): 30.38 inches Hg (1029.0 mb)
Winds: variable direction winds at 2 MPH (2 knots; 1.0 m/s)
Visibility: 6 or more miles (10+ km)
Ceiling: 3500 feet AGL
Clouds: few clouds at 1400 feet AGL
scattered clouds at 2500 feet AGL
broken clouds at 3500 feet AGL
Weather: no significant weather observed at this time

METAR text: LEBB 190930Z 35004KT 310V070 9999 FEW014 SCT025 BKN035 11/08 Q1029 TEMPO 3000 RA BKN010
Conditions at: LEBB (BILBAO/SONDICA , ES) observed 0930 UTC 19 March 2019
Temperature: 11.0°C (52°F)
Dewpoint: 8.0°C (46°F) [RH = 82%]
Pressure (altimeter): 30.38 inches Hg (1029.0 mb)
Winds: from the N (350 degrees) at 5 MPH (4 knots; 2.1 m/s)
Visibility: 6 or more miles (10+ km)
Ceiling: 3500 feet AGL
Clouds: few clouds at 1400 feet AGL
scattered clouds at 2500 feet AGL
broken clouds at 3500 feet AGL
Weather: no significant weather observed at this time

METAR text: LEBB 190900Z 05006KT 020V110 9999 FEW012 SCT020 BKN030 10/08 Q1029 TEMPO 3000 RA BKN010
Conditions at: LEBB (BILBAO/SONDICA , ES) observed 0900 UTC 19 March 2019
Temperature: 10.0°C (50°F)
Dewpoint: 8.0°C (46°F) [RH = 87%]
Pressure (altimeter): 30.38 inches Hg (1029.0 mb)
Winds: from the NE (50 degrees) at 7 MPH (6 knots; 3.1 m/s)
Visibility: 6 or more miles (10+ km)
Ceiling: 3000 feet AGL
Clouds: few clouds at 1200 feet AGL
scattered clouds at 2000 feet AGL
broken clouds at 3000 feet AGL
Weather: no significant weather observed at this time

METAR text: LEBB 190830Z 01004KT 290V050 9999 FEW012 SCT020 BKN030 11/09 Q1029 TEMPO 3000 RA BKN010
Conditions at: LEBB (BILBAO/SONDICA , ES) observed 0830 UTC 19 March 2019
Temperature: 11.0°C (52°F)
Dewpoint: 9.0°C (48°F) [RH = 87%]
Pressure (altimeter): 30.38 inches Hg (1029.0 mb)
Winds: from the N (10 degrees) at 5 MPH (4 knots; 2.1 m/s)
Visibility: 6 or more miles (10+ km)
Ceiling: 3000 feet AGL
Clouds: few clouds at 1200 feet AGL
scattered clouds at 2000 feet AGL
broken clouds at 3000 feet AGL
Weather: no significant weather observed at this time

METAR text: LEBB 190800Z 01007KT 330V060 9999 FEW012 SCT020 BKN030 10/09 Q1028 TEMPO 3000 RA BKN010
Conditions at: LEBB (BILBAO/SONDICA , ES) observed 0800 UTC 19 March 2019
Temperature: 10.0°C (50°F)
Dewpoint: 9.0°C (48°F) [RH = 93%]
Pressure (altimeter): 30.35 inches Hg (1028.0 mb)
Winds: from the N (10 degrees) at 8 MPH (7 knots; 3.6 m/s)
Visibility: 6 or more miles (10+ km)
Ceiling: 3000 feet AGL
Clouds: few clouds at 1200 feet AGL
scattered clouds at 2000 feet AGL
broken clouds at 3000 feet AGL
Weather: no significant weather observed at this time

METAR text: LEBB 190730Z 01008KT 330V040 9999 FEW012 SCT020 BKN030 10/09 Q1028 TEMPO 3000 RA BKN010
Conditions at: LEBB (BILBAO/SONDICA , ES) observed 0730 UTC 19 March 2019
Temperature: 10.0°C (50°F)
Dewpoint: 9.0°C (48°F) [RH = 93%]
Pressure (altimeter): 30.35 inches Hg (1028.0 mb)
Winds: from the N (10 degrees) at 9 MPH (8 knots; 4.1 m/s)
Visibility: 6 or more miles (10+ km)
Ceiling: 3000 feet AGL
Clouds: few clouds at 1200 feet AGL
scattered clouds at 2000 feet AGL
broken clouds at 3000 feet AGL
Weather: no significant weather observed at this time

METAR text: LEBB 190700Z 34004KT 290V020 8000 FEW010 SCT020 BKN030 10/09 Q1028 TEMPO 3000 RA BKN010
Conditions at: LEBB (BILBAO/SONDICA , ES) observed 0700 UTC 19 March 2019
Temperature: 10.0°C (50°F)
Dewpoint: 9.0°C (48°F) [RH = 93%]
Pressure (altimeter): 30.35 inches Hg (1028.0 mb)
Winds: from the NNW (340 degrees) at 5 MPH (4 knots; 2.1 m/s)
Visibility: 5 miles ( 8 km)
Ceiling: 3000 feet AGL
Clouds: few clouds at 1000 feet AGL
scattered clouds at 2000 feet AGL
broken clouds at 3000 feet AGL
Weather: no significant weather observed at this time

METAR text: LEBB 190630Z 35005KT 300V030 9999 -RA FEW010 SCT020 BKN030 09/08 Q1028 TEMPO 3000 RA BKN010
Conditions at: LEBB (BILBAO/SONDICA , ES) observed 0630 UTC 19 March 2019
Temperature: 9.0°C (48°F)
Dewpoint: 8.0°C (46°F) [RH = 93%]
Pressure (altimeter): 30.35 inches Hg (1028.0 mb)
Winds: from the N (350 degrees) at 6 MPH (5 knots; 2.6 m/s)
Visibility: 6 or more miles (10+ km)
Ceiling: 3000 feet AGL
Clouds: few clouds at 1000 feet AGL
scattered clouds at 2000 feet AGL
broken clouds at 3000 feet AGL
Weather: -RA  (light rain)

METAR text: LEBB 190600Z 34004KT 310V020 6000 RA FEW010 SCT020 BKN030 09/08 Q1028 TEMPO 3000 RA BKN010
Conditions at: LEBB (BILBAO/SONDICA , ES) observed 0600 UTC 19 March 2019
Temperature: 9.0°C (48°F)
Dewpoint: 8.0°C (46°F) [RH = 93%]
Pressure (altimeter): 30.35 inches Hg (1028.0 mb)
Winds: from the NNW (340 degrees) at 5 MPH (4 knots; 2.1 m/s)
Visibility: 4 miles ( 6 km)
Ceiling: 3000 feet AGL
Clouds: few clouds at 1000 feet AGL
scattered clouds at 2000 feet AGL
broken clouds at 3000 feet AGL
Weather: RA  (moderate rain)

METAR text: LEBB 190530Z 36005KT 310V030 9999 -RA FEW015 SCT025 BKN035 09/08 Q1028 TEMPO 3000 RA BKN010
Conditions at: LEBB (BILBAO/SONDICA , ES) observed 0530 UTC 19 March 2019
Temperature: 9.0°C (48°F)
Dewpoint: 8.0°C (46°F) [RH = 93%]
Pressure (altimeter): 30.35 inches Hg (1028.0 mb)
Winds: from the N (360 degrees) at 6 MPH (5 knots; 2.6 m/s)
Visibility: 6 or more miles (10+ km)
Ceiling: 3500 feet AGL
Clouds: few clouds at 1500 feet AGL
scattered clouds at 2500 feet AGL
broken clouds at 3500 feet AGL
Weather: -RA  (light rain)

METAR text: LEBB 190500Z 00000KT 7000 -RA FEW010 SCT020 BKN030 09/08 Q1028 TEMPO 3000 RA BKN010
Conditions at: LEBB (BILBAO/SONDICA , ES) observed 0500 UTC 19 March 2019
Temperature: 9.0°C (48°F)
Dewpoint: 8.0°C (46°F) [RH = 93%]
Pressure (altimeter): 30.35 inches Hg (1028.0 mb)
Winds: calm
Visibility: 4 miles ( 7 km)
Ceiling: 3000 feet AGL
Clouds: few clouds at 1000 feet AGL
scattered clouds at 2000 feet AGL
broken clouds at 3000 feet AGL
Weather: -RA  (light rain)

METAR text: LEBB 190430Z VRB02KT 6000 -RA FEW006 SCT010 BKN020 08/08 Q1028 TEMPO 3000 RA BKN010
Conditions at: LEBB (BILBAO/SONDICA , ES) observed 0430 UTC 19 March 2019
Temperature: 8.0°C (46°F)
Dewpoint: 8.0°C (46°F) [RH = 100%]
Pressure (altimeter): 30.35 inches Hg (1028.0 mb)
Winds: variable direction winds at 2 MPH (2 knots; 1.0 m/s)
Visibility: 4 miles ( 6 km)
Ceiling: 2000 feet AGL
Clouds: few clouds at 600 feet AGL
scattered clouds at 1000 feet AGL
broken clouds at 2000 feet AGL
Weather: -RA  (light rain)

METAR text: LEBB 190400Z 11003KT 080V150 9999 -RA FEW006 SCT010 BKN020 08/08 Q1028 TEMPO 3000 RA BKN010
Conditions at: LEBB (BILBAO/SONDICA , ES) observed 0400 UTC 19 March 2019
Temperature: 8.0°C (46°F)
Dewpoint: 8.0°C (46°F) [RH = 100%]
Pressure (altimeter): 30.35 inches Hg (1028.0 mb)
Winds: from the ESE (110 degrees) at 3 MPH (3 knots; 1.5 m/s)
Visibility: 6 or more miles (10+ km)
Ceiling: 2000 feet AGL
Clouds: few clouds at 600 feet AGL
scattered clouds at 1000 feet AGL
broken clouds at 2000 feet AGL
Weather: -RA  (light rain)

METAR text: LEBB 190330Z AUTO VRB01KT 8000 3800 RA SCT024/// BKN030/// BKN044/// 08/08 Q1028
Conditions at: LEBB (BILBAO/SONDICA , ES) observed 0330 UTC 19 March 2019
Temperature: 8.0°C (46°F)
Dewpoint: 8.0°C (46°F) [RH = 100%]
Pressure (altimeter): 30.35 inches Hg (1028.0 mb)
Winds: variable direction winds at 1 MPH (1 knots; 0.5 m/s)
Visibility: 5 miles ( 8 km)
Ceiling: 3000 feet AGL
Clouds: scattered clouds at 2400 feet AGL
broken clouds at 3000 feet AGL
broken clouds at 4400 feet AGL
Weather: RA  (moderate rain)

Forecast for: LEBB (BILBAO/SONDICA , ES)
Text: TAF LEBB 201100Z 2012/2112 10005KT 9999 SCT050 TX13/2014Z TN03/2106Z
Forecast period: 1200 UTC 20 March 2019 to 1200 UTC 21 March 2019
Forecast type: FROM: standard forecast or significant change
Winds: from the E (100 degrees) at 6 MPH (5 knots; 2.6 m/s)
Visibility: 6 or more miles 10+ km)
Ceiling: at least 12,000 feet AGL
Clouds: scattered clouds at 5000 feet AGL
Weather: no significant weather forecast for this period
Text: TEMPO 2012/2022 02010KT
Forecast period: 1200 to 2200 UTC 20 March 2019
Forecast type: TEMPORARY: The following changes expected for less than half the time period
Winds: from the NNE (20 degrees) at 12 MPH (10 knots; 5.1 m/s)
Visibility: missing
Ceiling: unknown
Clouds: missing
Weather: no significant weather forecast for this period